sensor_id;sensor_type;location;lat;lon;timestamp;pressure;altitude;pressure_sealevel;temperature;humidity
79527;BME280;68974;47.754;-3.364;2023-09-19T00:02:12;101529.38;;;16.76;71.02
79527;BME280;68974;47.754;-3.364;2023-09-19T00:04:37;101524.31;;;16.65;71.34
79527;BME280;68974;47.754;-3.364;2023-09-19T00:07:05;101524.66;;;16.77;71.13
79527;BME280;68974;47.754;-3.364;2023-09-19T00:09:31;101525.16;;;16.65;70.89
79527;BME280;68974;47.754;-3.364;2023-09-19T00:12:03;101519.91;;;16.64;71.36
79527;BME280;68974;47.754;-3.364;2023-09-19T00:14:28;101517.75;;;16.61;72.07
79527;BME280;68974;47.754;-3.364;2023-09-19T00:16:54;101517.03;;;16.69;71.79
79527;BME280;68974;47.754;-3.364;2023-09-19T00:19:20;101508.09;;;16.72;71.95
79527;BME280;68974;47.754;-3.364;2023-09-19T00:21:45;101509.75;;;16.73;71.79
79527;BME280;68974;47.754;-3.364;2023-09-19T00:24:12;101511.59;;;16.77;72.10
79527;BME280;68974;47.754;-3.364;2023-09-19T00:26:39;101507.09;;;16.81;72.57
79527;BME280;68974;47.754;-3.364;2023-09-19T00:29:05;101507.63;;;16.83;72.42
79527;BME280;68974;47.754;-3.364;2023-09-19T00:31:34;101509.47;;;16.88;72.57
79527;BME280;68974;47.754;-3.364;2023-09-19T00:33:59;101509.41;;;16.93;72.88
79527;BME280;68974;47.754;-3.364;2023-09-19T00:36:31;101513.28;;;16.92;73.45
79527;BME280;68974;47.754;-3.364;2023-09-19T00:38:58;101509.47;;;16.88;73.39
79527;BME280;68974;47.754;-3.364;2023-09-19T00:41:24;101507.75;;;16.92;73.55
79527;BME280;68974;47.754;-3.364;2023-09-19T00:43:50;101510.44;;;16.97;73.56
79527;BME280;68974;47.754;-3.364;2023-09-19T00:46:18;101508.38;;;17.03;73.32
79527;BME280;68974;47.754;-3.364;2023-09-19T00:48:44;101511.38;;;17.06;73.04
79527;BME280;68974;47.754;-3.364;2023-09-19T00:51:10;101511.38;;;17.06;73.43
79527;BME280;68974;47.754;-3.364;2023-09-19T00:53:36;101508.38;;;17.03;73.17
79527;BME280;68974;47.754;-3.364;2023-09-19T00:56:03;101516.72;;;17.03;73.46
79527;BME280;68974;47.754;-3.364;2023-09-19T00:58:33;101514.56;;;17.00;73.92
79527;BME280;68974;47.754;-3.364;2023-09-19T01:01:01;101514.66;;;16.95;73.78
79527;BME280;68974;47.754;-3.364;2023-09-19T01:03:27;101522.16;;;16.94;73.83
79527;BME280;68974;47.754;-3.364;2023-09-19T01:05:53;101518.47;;;16.99;74.11
79527;BME280;68974;47.754;-3.364;2023-09-19T01:08:18;101506.63;;;17.07;73.37
79527;BME280;68974;47.754;-3.364;2023-09-19T01:10:52;101510.25;;;17.07;73.47
79527;BME280;68974;47.754;-3.364;2023-09-19T01:13:37;101508.00;;;17.09;73.58
79527;BME280;68974;47.754;-3.364;2023-09-19T01:16:42;101512.28;;;17.15;73.06
79527;BME280;68974;47.754;-3.364;2023-09-19T01:20:11;101503.06;;;17.20;71.82
79527;BME280;68974;47.754;-3.364;2023-09-19T01:25:20;101486.19;;;17.16;72.65
79527;BME280;68974;47.754;-3.364;2023-09-19T01:31:04;101491.88;;;17.25;73.46
79527;BME280;68974;47.754;-3.364;2023-09-19T01:33:57;101493.81;;;17.24;73.44
79527;BME280;68974;47.754;-3.364;2023-09-19T01:36:28;101497.09;;;17.26;73.42
79527;BME280;68974;47.754;-3.364;2023-09-19T01:38:55;101505.94;;;17.15;73.49
79527;BME280;68974;47.754;-3.364;2023-09-19T01:41:50;101503.03;;;17.06;73.64
79527;BME280;68974;47.754;-3.364;2023-09-19T01:44:34;101500.25;;;17.06;73.89
79527;BME280;68974;47.754;-3.364;2023-09-19T01:47:12;101505.91;;;17.01;74.01
79527;BME280;68974;47.754;-3.364;2023-09-19T01:49:55;101494.91;;;16.96;74.60
79527;BME280;68974;47.754;-3.364;2023-09-19T01:52:28;101504.38;;;16.95;74.77
79527;BME280;68974;47.754;-3.364;2023-09-19T01:55:05;101503.22;;;16.96;74.68
79527;BME280;68974;47.754;-3.364;2023-09-19T01:57:58;101501.19;;;17.02;74.43
79527;BME280;68974;47.754;-3.364;2023-09-19T02:00:27;101502.22;;;17.06;74.47
79527;BME280;68974;47.754;-3.364;2023-09-19T02:02:55;101503.66;;;17.03;74.62
79527;BME280;68974;47.754;-3.364;2023-09-19T02:05:24;101507.75;;;17.06;74.87
79527;BME280;68974;47.754;-3.364;2023-09-19T02:07:50;101487.53;;;17.05;74.90
79527;BME280;68974;47.754;-3.364;2023-09-19T02:10:15;101481.97;;;17.05;74.91
79527;BME280;68974;47.754;-3.364;2023-09-19T02:12:42;101480.53;;;17.08;74.70
79527;BME280;68974;47.754;-3.364;2023-09-19T02:15:08;101478.88;;;17.07;74.75
79527;BME280;68974;47.754;-3.364;2023-09-19T02:17:34;101473.66;;;17.19;73.97
79527;BME280;68974;47.754;-3.364;2023-09-19T02:20:00;101458.03;;;17.09;74.23
79527;BME280;68974;47.754;-3.364;2023-09-19T02:22:26;101457.00;;;17.05;74.31
79527;BME280;68974;47.754;-3.364;2023-09-19T02:24:52;101463.16;;;17.02;74.38
79527;BME280;68974;47.754;-3.364;2023-09-19T02:27:19;101463.16;;;17.02;74.40
79527;BME280;68974;47.754;-3.364;2023-09-19T02:29:44;101457.78;;;17.06;73.60
79527;BME280;68974;47.754;-3.364;2023-09-19T02:32:09;101456.56;;;16.98;73.47
79527;BME280;68974;47.754;-3.364;2023-09-19T02:34:35;101455.75;;;16.98;73.44
79527;BME280;68974;47.754;-3.364;2023-09-19T02:37:03;101463.56;;;16.96;73.58
79527;BME280;68974;47.754;-3.364;2023-09-19T02:39:30;101460.06;;;16.90;73.82
79527;BME280;68974;47.754;-3.364;2023-09-19T02:41:56;101463.16;;;17.02;72.94
79527;BME280;68974;47.754;-3.364;2023-09-19T02:44:21;101469.31;;;16.99;72.79
79527;BME280;68974;47.754;-3.364;2023-09-19T02:46:49;101476.00;;;16.98;73.04
79527;BME280;68974;47.754;-3.364;2023-09-19T02:49:14;101474.44;;;16.92;73.17
79527;BME280;68974;47.754;-3.364;2023-09-19T02:51:40;101473.94;;;16.90;73.37
79527;BME280;68974;47.754;-3.364;2023-09-19T02:54:05;101482.06;;;17.00;72.27
79527;BME280;68974;47.754;-3.364;2023-09-19T02:56:31;101484.72;;;16.92;72.78
79527;BME280;68974;47.754;-3.364;2023-09-19T02:58:57;101479.41;;;16.95;72.91
79527;BME280;68974;47.754;-3.364;2023-09-19T03:01:23;101472.09;;;16.99;72.85
79527;BME280;68974;47.754;-3.364;2023-09-19T03:03:48;101469.31;;;16.99;73.00
79527;BME280;68974;47.754;-3.364;2023-09-19T03:06:14;101467.38;;;17.00;73.47
79527;BME280;68974;47.754;-3.364;2023-09-19T03:08:40;101472.00;;;17.04;72.90
79527;BME280;68974;47.754;-3.364;2023-09-19T03:11:08;101473.03;;;17.08;72.45
79527;BME280;68974;47.754;-3.364;2023-09-19T03:13:36;101467.47;;;17.08;72.29
79527;BME280;68974;47.754;-3.364;2023-09-19T03:16:03;101473.03;;;17.08;72.26
79527;BME280;68974;47.754;-3.364;2023-09-19T03:18:31;101469.97;;;17.10;72.48
79527;BME280;68974;47.754;-3.364;2023-09-19T03:20:57;101467.28;;;17.05;72.81
79527;BME280;68974;47.754;-3.364;2023-09-19T03:23:25;101461.41;;;17.06;72.85
79527;BME280;68974;47.754;-3.364;2023-09-19T03:25:51;101460.06;;;17.17;72.41
79527;BME280;68974;47.754;-3.364;2023-09-19T03:28:17;101458.53;;;17.11;72.59
79527;BME280;68974;47.754;-3.364;2023-09-19T03:30:43;101457.41;;;17.12;72.85
79527;BME280;68974;47.754;-3.364;2023-09-19T03:33:09;101455.75;;;17.11;72.71
79527;BME280;68974;47.754;-3.364;2023-09-19T03:35:37;101451.75;;;17.17;72.92
79527;BME280;68974;47.754;-3.364;2023-09-19T03:38:03;101452.78;;;17.21;72.67
79527;BME280;68974;47.754;-3.364;2023-09-19T03:40:29;101461.19;;;17.16;72.88
79527;BME280;68974;47.754;-3.364;2023-09-19T03:42:55;101458.84;;;17.23;72.49
79527;BME280;68974;47.754;-3.364;2023-09-19T03:45:20;101456.25;;;17.41;71.70
79527;BME280;68974;47.754;-3.364;2023-09-19T03:47:46;101457.41;;;17.40;71.41
79527;BME280;68974;47.754;-3.364;2023-09-19T03:50:13;101451.63;;;17.36;71.76
79527;BME280;68974;47.754;-3.364;2023-09-19T03:52:43;101435.41;;;17.29;71.29
79527;BME280;68974;47.754;-3.364;2023-09-19T03:55:09;101443.63;;;17.35;71.30
79527;BME280;68974;47.754;-3.364;2023-09-19T03:57:35;101439.72;;;17.36;71.54
79527;BME280;68974;47.754;-3.364;2023-09-19T04:00:02;101435.19;;;17.40;71.56
79527;BME280;68974;47.754;-3.364;2023-09-19T04:02:27;101438.38;;;17.33;71.73
79527;BME280;68974;47.754;-3.364;2023-09-19T04:04:58;101439.72;;;17.36;72.04
79527;BME280;68974;47.754;-3.364;2023-09-19T04:07:24;101436.81;;;17.41;71.30
79527;BME280;68974;47.754;-3.364;2023-09-19T04:09:51;101436.41;;;17.61;70.35
79527;BME280;68974;47.754;-3.364;2023-09-19T04:12:18;101435.06;;;17.45;70.53
79527;BME280;68974;47.754;-3.364;2023-09-19T04:14:44;101431.69;;;17.48;70.97
79527;BME280;68974;47.754;-3.364;2023-09-19T04:17:10;101421.41;;;17.48;70.14
79527;BME280;68974;47.754;-3.364;2023-09-19T04:19:36;101418.19;;;17.55;70.30
79527;BME280;68974;47.754;-3.364;2023-09-19T04:22:02;101416.69;;;17.49;70.85
79527;BME280;68974;47.754;-3.364;2023-09-19T04:24:28;101419.75;;;17.47;71.02
79527;BME280;68974;47.754;-3.364;2023-09-19T04:26:54;101413.78;;;17.40;71.62
79527;BME280;68974;47.754;-3.364;2023-09-19T04:29:19;101418.28;;;17.50;71.05
79527;BME280;68974;47.754;-3.364;2023-09-19T04:31:45;101415.84;;;17.48;71.58
79527;BME280;68974;47.754;-3.364;2023-09-19T04:34:11;101411.13;;;17.49;71.73
79527;BME280;68974;47.754;-3.364;2023-09-19T04:36:41;101423.84;;;17.50;71.98
79527;BME280;68974;47.754;-3.364;2023-09-19T04:39:07;101423.25;;;17.53;72.05
79527;BME280;68974;47.754;-3.364;2023-09-19T04:41:33;101421.41;;;17.62;71.49
79527;BME280;68974;47.754;-3.364;2023-09-19T04:43:59;101426.97;;;17.62;71.49
79527;BME280;68974;47.754;-3.364;2023-09-19T04:46:25;101424.25;;;17.57;71.79
79527;BME280;68974;47.754;-3.364;2023-09-19T04:48:50;101415.41;;;17.55;71.41
79527;BME280;68974;47.754;-3.364;2023-09-19T04:51:16;101421.47;;;17.57;71.89
79527;BME280;68974;47.754;-3.364;2023-09-19T04:53:41;101414.78;;;17.71;71.32
79527;BME280;68974;47.754;-3.364;2023-09-19T04:56:07;101422.31;;;17.71;71.26
79527;BME280;68974;47.754;-3.364;2023-09-19T04:58:33;101429.63;;;17.67;71.43
79527;BME280;68974;47.754;-3.364;2023-09-19T05:00:59;101441.16;;;17.60;71.59
79527;BME280;68974;47.754;-3.364;2023-09-19T05:03:29;101429.44;;;17.63;71.17
79527;BME280;68974;47.754;-3.364;2023-09-19T05:05:54;101426.13;;;17.61;70.91
79527;BME280;68974;47.754;-3.364;2023-09-19T05:08:20;101423.53;;;17.65;70.31
79527;BME280;68974;47.754;-3.364;2023-09-19T05:10:47;101432.94;;;17.69;70.23
79527;BME280;68974;47.754;-3.364;2023-09-19T05:13:12;101419.84;;;17.69;69.88
79527;BME280;68974;47.754;-3.364;2023-09-19T05:15:38;101417.28;;;17.59;70.29
79527;BME280;68974;47.754;-3.364;2023-09-19T05:18:04;101414.19;;;17.61;70.09
79527;BME280;68974;47.754;-3.364;2023-09-19T05:20:31;101419.41;;;17.76;69.33
79527;BME280;68974;47.754;-3.364;2023-09-19T05:23:02;101416.09;;;17.74;68.87
79527;BME280;68974;47.754;-3.364;2023-09-19T05:25:36;101421.19;;;17.72;69.14
79527;BME280;68974;47.754;-3.364;2023-09-19T05:28:02;101418.41;;;17.72;69.18
79527;BME280;68974;47.754;-3.364;2023-09-19T05:30:29;101417.69;;;17.66;69.91
79527;BME280;68974;47.754;-3.364;2023-09-19T05:32:55;101420.06;;;17.73;70.06
79527;BME280;68974;47.754;-3.364;2023-09-19T05:35:22;101419.53;;;17.71;70.40
79527;BME280;68974;47.754;-3.364;2023-09-19T05:37:50;101417.56;;;17.71;70.42
79527;BME280;68974;47.754;-3.364;2023-09-19T05:40:19;101422.22;;;17.62;70.75
79527;BME280;68974;47.754;-3.364;2023-09-19T05:42:45;101424.19;;;17.62;70.44
79527;BME280;68974;47.754;-3.364;2023-09-19T05:45:11;101423.25;;;17.53;70.07
79527;BME280;68974;47.754;-3.364;2023-09-19T05:47:40;101430.22;;;17.50;70.11
79527;BME280;68974;47.754;-3.364;2023-09-19T05:50:09;101431.38;;;17.49;69.56
79527;BME280;68974;47.754;-3.364;2023-09-19T05:52:35;101438.38;;;17.47;69.17
79527;BME280;68974;47.754;-3.364;2023-09-19T05:55:06;101434.56;;;17.43;69.55
79527;BME280;68974;47.754;-3.364;2023-09-19T05:57:33;101427.25;;;17.47;70.11
79527;BME280;68974;47.754;-3.364;2023-09-19T05:59:59;101429.41;;;17.50;69.46
79527;BME280;68974;47.754;-3.364;2023-09-19T06:02:26;101427.25;;;17.47;69.71
79527;BME280;68974;47.754;-3.364;2023-09-19T06:04:55;101415.03;;;17.48;69.87
79527;BME280;68974;47.754;-3.364;2023-09-19T06:07:24;101416.03;;;17.52;69.66
79527;BME280;68974;47.754;-3.364;2023-09-19T06:09:52;101410.69;;;17.42;69.02
79527;BME280;68974;47.754;-3.364;2023-09-19T06:12:21;101411.22;;;17.44;69.07
79527;BME280;68974;47.754;-3.364;2023-09-19T06:14:46;101416.16;;;17.47;68.63
79527;BME280;68974;47.754;-3.364;2023-09-19T06:17:12;101420.16;;;17.41;69.19
79527;BME280;68974;47.754;-3.364;2023-09-19T06:19:38;101413.78;;;17.40;69.47
79527;BME280;68974;47.754;-3.364;2023-09-19T06:22:03;101412.47;;;17.38;69.37
79527;BME280;68974;47.754;-3.364;2023-09-19T06:24:29;101410.59;;;17.47;69.34
79527;BME280;68974;47.754;-3.364;2023-09-19T06:26:55;101417.81;;;17.48;70.16
79527;BME280;68974;47.754;-3.364;2023-09-19T06:29:21;101419.84;;;17.56;69.96
79527;BME280;68974;47.754;-3.364;2023-09-19T06:31:48;101412.84;;;17.72;70.03
79527;BME280;68974;47.754;-3.364;2023-09-19T06:34:14;101409.72;;;17.87;68.95
79527;BME280;68974;47.754;-3.364;2023-09-19T06:36:43;101408.38;;;17.85;67.74
79527;BME280;68974;47.754;-3.364;2023-09-19T06:39:10;101413.09;;;17.84;68.04
79527;BME280;68974;47.754;-3.364;2023-09-19T06:41:37;101408.25;;;17.90;67.31
79527;BME280;68974;47.754;-3.364;2023-09-19T06:44:03;101411.78;;;18.04;66.90
79527;BME280;68974;47.754;-3.364;2023-09-19T06:46:30;101403.72;;;18.16;66.37
79527;BME280;68974;47.754;-3.364;2023-09-19T06:49:00;101411.19;;;18.29;66.23
79527;BME280;68974;47.754;-3.364;2023-09-19T06:51:25;101412.38;;;18.37;66.63
79527;BME280;68974;47.754;-3.364;2023-09-19T06:53:51;101424.34;;;18.37;66.41
79527;BME280;68974;47.754;-3.364;2023-09-19T06:56:19;101420.78;;;18.23;67.77
79527;BME280;68974;47.754;-3.364;2023-09-19T06:58:49;101414.41;;;18.23;68.04
79527;BME280;68974;47.754;-3.364;2023-09-19T07:01:14;101421.53;;;18.15;68.62
79527;BME280;68974;47.754;-3.364;2023-09-19T07:03:40;101419.59;;;18.15;69.30
79527;BME280;68974;47.754;-3.364;2023-09-19T07:06:06;101421.41;;;18.20;69.05
79527;BME280;68974;47.754;-3.364;2023-09-19T07:08:31;101413.38;;;18.18;69.70
79527;BME280;68974;47.754;-3.364;2023-09-19T07:10:56;101416.16;;;18.18;70.26
79527;BME280;68974;47.754;-3.364;2023-09-19T07:13:22;101415.56;;;18.22;70.25
79527;BME280;68974;47.754;-3.364;2023-09-19T07:15:47;101411.47;;;18.28;70.27
79527;BME280;68974;47.754;-3.364;2023-09-19T07:18:15;101406.97;;;18.32;69.90
79527;BME280;68974;47.754;-3.364;2023-09-19T07:20:42;101403.13;;;18.28;70.20
79527;BME280;68974;47.754;-3.364;2023-09-19T07:23:16;101387.97;;;18.34;69.52
79527;BME280;68974;47.754;-3.364;2023-09-19T07:25:43;101394.53;;;18.38;69.29
79527;BME280;68974;47.754;-3.364;2023-09-19T07:28:10;101400.22;;;18.33;69.01
79527;BME280;68974;47.754;-3.364;2023-09-19T07:30:36;101398.16;;;18.38;68.96
79527;BME280;68974;47.754;-3.364;2023-09-19T07:33:07;101400.75;;;18.35;68.87
79527;BME280;68974;47.754;-3.364;2023-09-19T07:35:33;101396.84;;;18.36;68.92
79527;BME280;68974;47.754;-3.364;2023-09-19T07:37:59;101396.19;;;18.39;68.78
79527;BME280;68974;47.754;-3.364;2023-09-19T07:40:27;101401.38;;;18.54;68.20
79527;BME280;68974;47.754;-3.364;2023-09-19T07:42:56;101407.56;;;18.51;69.49
79527;BME280;68974;47.754;-3.364;2023-09-19T07:45:30;101406.44;;;18.52;68.63
79527;BME280;68974;47.754;-3.364;2023-09-19T07:47:55;101402.38;;;18.58;68.58
79527;BME280;68974;47.754;-3.364;2023-09-19T07:50:21;101413.41;;;18.72;68.08
79527;BME280;68974;47.754;-3.364;2023-09-19T07:52:48;101403.34;;;18.84;66.97
79527;BME280;68974;47.754;-3.364;2023-09-19T07:55:16;101406.53;;;19.00;66.31
79527;BME280;68974;47.754;-3.364;2023-09-19T07:57:45;101412.66;;;19.11;65.36
79527;BME280;68974;47.754;-3.364;2023-09-19T08:00:12;101415.16;;;19.29;64.81
79527;BME280;68974;47.754;-3.364;2023-09-19T08:02:39;101410.53;;;19.73;63.98
79527;BME280;68974;47.754;-3.364;2023-09-19T08:05:05;101406.50;;;20.68;60.97
79527;BME280;68974;47.754;-3.364;2023-09-19T08:07:32;101412.88;;;21.53;58.06
79527;BME280;68974;47.754;-3.364;2023-09-19T08:09:57;101404.69;;;21.98;57.23
79527;BME280;68974;47.754;-3.364;2023-09-19T08:12:24;101408.88;;;22.25;56.41
79527;BME280;68974;47.754;-3.364;2023-09-19T08:14:49;101413.13;;;22.43;55.72
79527;BME280;68974;47.754;-3.364;2023-09-19T08:17:15;101414.44;;;22.79;53.98
79527;BME280;68974;47.754;-3.364;2023-09-19T08:19:41;101413.44;;;22.63;53.72
79527;BME280;68974;47.754;-3.364;2023-09-19T08:22:07;101402.16;;;22.38;54.68
79527;BME280;68974;47.754;-3.364;2023-09-19T08:24:35;101415.41;;;22.29;55.05
79527;BME280;68974;47.754;-3.364;2023-09-19T08:27:01;101415.44;;;21.88;55.48
79527;BME280;68974;47.754;-3.364;2023-09-19T08:29:30;101412.56;;;21.76;56.65
79527;BME280;68974;47.754;-3.364;2023-09-19T08:31:57;101422.75;;;21.51;56.16
79527;BME280;68974;47.754;-3.364;2023-09-19T08:34:23;101418.94;;;21.55;56.23
79527;BME280;68974;47.754;-3.364;2023-09-19T08:36:53;101426.38;;;22.01;56.18
79527;BME280;68974;47.754;-3.364;2023-09-19T08:39:22;101430.00;;;22.56;54.20
79527;BME280;68974;47.754;-3.364;2023-09-19T08:41:48;101430.41;;;22.78;52.99
79527;BME280;68974;47.754;-3.364;2023-09-19T08:44:13;101426.38;;;23.00;51.81
79527;BME280;68974;47.754;-3.364;2023-09-19T08:46:41;101429.66;;;23.39;50.92
79527;BME280;68974;47.754;-3.364;2023-09-19T08:49:33;101432.47;;;23.63;49.60
79527;BME280;68974;47.754;-3.364;2023-09-19T08:52:28;101424.94;;;23.91;49.29
79527;BME280;68974;47.754;-3.364;2023-09-19T08:54:59;101418.25;;;24.36;48.15
79527;BME280;68974;47.754;-3.364;2023-09-19T08:57:33;101425.94;;;24.11;48.66
79527;BME280;68974;47.754;-3.364;2023-09-19T09:00:01;101440.13;;;23.90;49.53
79527;BME280;68974;47.754;-3.364;2023-09-19T09:02:28;101438.56;;;23.41;51.15
79527;BME280;68974;47.754;-3.364;2023-09-19T09:04:55;101436.22;;;23.30;51.17
79527;BME280;68974;47.754;-3.364;2023-09-19T09:07:22;101437.06;;;22.74;51.64
79527;BME280;68974;47.754;-3.364;2023-09-19T09:09:48;101439.00;;;23.06;51.18
79527;BME280;68974;47.754;-3.364;2023-09-19T09:12:14;101438.78;;;23.23;51.58
79527;BME280;68974;47.754;-3.364;2023-09-19T09:14:44;101441.94;;;23.34;50.79
79527;BME280;68974;47.754;-3.364;2023-09-19T09:17:11;101434.34;;;23.10;51.50
79527;BME280;68974;47.754;-3.364;2023-09-19T09:19:37;101423.13;;;23.35;51.16
79527;BME280;68974;47.754;-3.364;2023-09-19T09:22:09;101440.38;;;23.85;50.10
79527;BME280;68974;47.754;-3.364;2023-09-19T09:24:36;101433.88;;;23.57;50.52
79527;BME280;68974;47.754;-3.364;2023-09-19T09:27:04;101435.75;;;23.53;51.20
79527;BME280;68974;47.754;-3.364;2023-09-19T09:29:49;101432.25;;;23.44;50.43
79527;BME280;68974;47.754;-3.364;2023-09-19T09:32:26;101445.06;;;23.32;50.65
79527;BME280;68974;47.754;-3.364;2023-09-19T09:34:58;101438.06;;;23.75;49.84
79527;BME280;68974;47.754;-3.364;2023-09-19T09:37:24;101430.50;;;24.71;47.75
79527;BME280;68974;47.754;-3.364;2023-09-19T09:39:53;101433.00;;;25.35;46.54
79527;BME280;68974;47.754;-3.364;2023-09-19T09:42:36;101419.44;;;26.11;43.99
79527;BME280;68974;47.754;-3.364;2023-09-19T09:45:24;101424.59;;;26.86;42.46
79527;BME280;68974;47.754;-3.364;2023-09-19T09:48:00;101426.38;;;27.17;41.19
79527;BME280;68974;47.754;-3.364;2023-09-19T09:50:33;101413.09;;;26.52;42.81
79527;BME280;68974;47.754;-3.364;2023-09-19T09:53:28;101415.28;;;25.85;44.29
79527;BME280;68974;47.754;-3.364;2023-09-19T09:55:59;101416.56;;;25.22;44.78
79527;BME280;68974;47.754;-3.364;2023-09-19T09:58:36;101407.28;;;25.37;45.23
79527;BME280;68974;47.754;-3.364;2023-09-19T10:01:03;101412.63;;;25.58;45.92
79527;BME280;68974;47.754;-3.364;2023-09-19T10:03:36;101417.22;;;25.31;46.29
79527;BME280;68974;47.754;-3.364;2023-09-19T10:06:10;101413.38;;;25.23;46.29
79527;BME280;68974;47.754;-3.364;2023-09-19T10:09:17;101414.59;;;24.47;47.93
79527;BME280;68974;47.754;-3.364;2023-09-19T10:11:48;101435.94;;;24.36;49.43
79527;BME280;68974;47.754;-3.364;2023-09-19T10:14:31;101421.50;;;23.70;50.07
79527;BME280;68974;47.754;-3.364;2023-09-19T10:17:02;101426.38;;;23.37;52.09
79527;BME280;68974;47.754;-3.364;2023-09-19T10:19:33;101427.66;;;23.03;52.94
79527;BME280;68974;47.754;-3.364;2023-09-19T10:22:02;101423.00;;;22.62;53.88
79527;BME280;68974;47.754;-3.364;2023-09-19T10:24:30;101416.81;;;22.68;53.89
79527;BME280;68974;47.754;-3.364;2023-09-19T10:26:56;101418.75;;;22.76;53.40
79527;BME280;68974;47.754;-3.364;2023-09-19T10:29:24;101415.13;;;22.76;52.95
79527;BME280;68974;47.754;-3.364;2023-09-19T10:31:54;101417.13;;;22.87;53.44
79527;BME280;68974;47.754;-3.364;2023-09-19T10:34:25;101422.06;;;23.03;53.00
79527;BME280;68974;47.754;-3.364;2023-09-19T10:36:51;101416.81;;;23.38;52.73
79527;BME280;68974;47.754;-3.364;2023-09-19T10:39:17;101420.03;;;23.88;50.94
79527;BME280;68974;47.754;-3.364;2023-09-19T10:41:45;101411.41;;;24.49;49.56
79527;BME280;68974;47.754;-3.364;2023-09-19T10:44:13;101406.31;;;24.98;47.76
79527;BME280;68974;47.754;-3.364;2023-09-19T10:46:39;101403.69;;;25.21;47.17
79527;BME280;68974;47.754;-3.364;2023-09-19T10:49:05;101408.59;;;24.92;47.97
79527;BME280;68974;47.754;-3.364;2023-09-19T10:51:39;101402.31;;;24.68;47.37
79527;BME280;68974;47.754;-3.364;2023-09-19T10:54:10;101409.78;;;24.20;47.92
79527;BME280;68974;47.754;-3.364;2023-09-19T10:56:50;101399.50;;;23.72;49.91
79527;BME280;68974;47.754;-3.364;2023-09-19T10:59:21;101413.56;;;23.48;50.21
79527;BME280;68974;47.754;-3.364;2023-09-19T11:01:50;101411.69;;;23.52;50.46
79527;BME280;68974;47.754;-3.364;2023-09-19T11:04:26;101420.09;;;23.64;49.75
79527;BME280;68974;47.754;-3.364;2023-09-19T11:07:06;101411.06;;;23.83;49.93
79527;BME280;68974;47.754;-3.364;2023-09-19T11:09:54;101410.00;;;23.75;50.42
79527;BME280;68974;47.754;-3.364;2023-09-19T11:15:01;101416.88;;;23.90;50.77
79527;BME280;68974;47.754;-3.364;2023-09-19T11:17:42;101408.16;;;23.79;49.82
79527;BME280;68974;47.754;-3.364;2023-09-19T11:30:40;101396.25;;;25.13;47.19
79527;BME280;68974;47.754;-3.364;2023-09-19T11:33:23;101381.63;;;25.38;46.61
79527;BME280;68974;47.754;-3.364;2023-09-19T11:49:16;101399.31;;;23.41;51.38
79527;BME280;68974;47.754;-3.364;2023-09-19T11:51:46;101387.16;;;23.12;52.32
79527;BME280;68974;47.754;-3.364;2023-09-19T11:54:15;101393.44;;;22.97;52.67
79527;BME280;68974;47.754;-3.364;2023-09-19T11:56:49;101399.19;;;23.01;52.60
79527;BME280;68974;47.754;-3.364;2023-09-19T11:59:27;101396.13;;;22.94;52.16
79527;BME280;68974;47.754;-3.364;2023-09-19T12:01:56;101394.75;;;23.00;52.44
79527;BME280;68974;47.754;-3.364;2023-09-19T12:04:44;101387.63;;;23.14;51.22
79527;BME280;68974;47.754;-3.364;2023-09-19T12:07:15;101390.88;;;23.28;51.62
79527;BME280;68974;47.754;-3.364;2023-09-19T12:09:49;101396.25;;;23.46;51.13
79527;BME280;68974;47.754;-3.364;2023-09-19T12:12:27;101397.53;;;23.36;51.13
79527;BME280;68974;47.754;-3.364;2023-09-19T12:14:54;101394.66;;;23.45;52.41
79527;BME280;68974;47.754;-3.364;2023-09-19T12:17:22;101393.94;;;23.23;51.56
79527;BME280;68974;47.754;-3.364;2023-09-19T12:19:56;101400.47;;;23.27;51.62
79527;BME280;68974;47.754;-3.364;2023-09-19T12:22:21;101398.03;;;23.26;51.78
79527;BME280;68974;47.754;-3.364;2023-09-19T12:24:47;101397.88;;;23.22;52.17
79527;BME280;68974;47.754;-3.364;2023-09-19T12:27:13;101389.94;;;22.88;51.85
79527;BME280;68974;47.754;-3.364;2023-09-19T12:29:47;101398.13;;;22.81;53.00
79527;BME280;68974;47.754;-3.364;2023-09-19T12:32:16;101389.03;;;22.96;52.29
79527;BME280;68974;47.754;-3.364;2023-09-19T12:34:51;101395.75;;;22.83;52.61
79527;BME280;68974;47.754;-3.364;2023-09-19T12:37:18;101383.72;;;22.70;52.63
79527;BME280;68974;47.754;-3.364;2023-09-19T12:39:51;101389.13;;;22.75;53.74
79527;BME280;68974;47.754;-3.364;2023-09-19T12:42:22;101388.00;;;22.68;53.79
79527;BME280;68974;47.754;-3.364;2023-09-19T12:44:50;101385.84;;;22.73;54.09
79527;BME280;68974;47.754;-3.364;2023-09-19T12:47:23;101382.75;;;22.66;54.14
79527;BME280;68974;47.754;-3.364;2023-09-19T12:52:46;101377.63;;;22.68;54.04
79527;BME280;68974;47.754;-3.364;2023-09-19T12:55:25;101379.16;;;22.66;54.91
79527;BME280;68974;47.754;-3.364;2023-09-19T12:58:12;101372.44;;;22.91;54.02
79527;BME280;68974;47.754;-3.364;2023-09-19T13:00:44;101367.66;;;22.92;54.66
79527;BME280;68974;47.754;-3.364;2023-09-19T13:03:15;101357.97;;;22.89;53.81
79527;BME280;68974;47.754;-3.364;2023-09-19T13:08:24;101361.59;;;22.89;53.60
79527;BME280;68974;47.754;-3.364;2023-09-19T13:11:17;101355.63;;;23.03;53.46
79527;BME280;68974;47.754;-3.364;2023-09-19T13:13:48;101355.63;;;22.79;53.98
79527;BME280;68974;47.754;-3.364;2023-09-19T13:16:19;101357.81;;;22.73;54.41
79527;BME280;68974;47.754;-3.364;2023-09-19T13:18:54;101345.72;;;22.81;54.09
79527;BME280;68974;47.754;-3.364;2023-09-19T13:21:34;101364.25;;;22.98;54.40
79527;BME280;68974;47.754;-3.364;2023-09-19T13:24:20;101349.09;;;23.11;53.52
79527;BME280;68974;47.754;-3.364;2023-09-19T13:26:46;101352.34;;;22.89;53.60
79527;BME280;68974;47.754;-3.364;2023-09-19T13:29:11;101345.22;;;22.34;55.57
79527;BME280;68974;47.754;-3.364;2023-09-19T13:31:37;101349.25;;;22.13;56.14